ANA766 ROAH-RJOO
Flight info
| Callsign | ANA766 |
|---|---|
| Flight time | N/A |
| Altitude | 39000 |
| Route | AMAMI Y53 MADOG Y753 IZUMI |
| Aircraft | B772/H-SDE2E3FGHIJ5LORVWXY/LB1D1 |
Departure
| Time | 2026-05-04 07:41 |
|---|---|
| Airport | Naha International Airport (ROAH) |
Arrival
| Time | N/A |
|---|---|
| Airport | Osaka Itami International Airport (RJOO) |
| Time | Latitude | Longitude | Altitude | Speed | Heading |
|---|---|---|---|---|---|
| 2026-05-04 07:09 | 26.20719 | 127.64850 | 25 ft | 0 kts | 47° |
| 2026-05-04 07:24 | 26.20715 | 127.64846 | 25 ft | 2 kts | 44° |
| 2026-05-04 07:25 | 26.20702 | 127.64834 | 30 ft | 2 kts | 30° |
| 2026-05-04 07:26 | 26.20634 | 127.64856 | 28 ft | 0 kts | 277° |
| 2026-05-04 07:33 | 26.20327 | 127.64760 | 23 ft | 12 kts | 178° |
| 2026-05-04 07:33 | 26.20244 | 127.64763 | 23 ft | 12 kts | 178° |
| 2026-05-04 07:33 | 26.20162 | 127.64767 | 24 ft | 12 kts | 177° |
| 2026-05-04 07:33 | 26.20079 | 127.64771 | 24 ft | 12 kts | 177° |
| 2026-05-04 07:34 | 26.19997 | 127.64776 | 24 ft | 12 kts | 177° |
| 2026-05-04 07:34 | 26.19914 | 127.64779 | 23 ft | 12 kts | 177° |
| 2026-05-04 07:34 | 26.19832 | 127.64784 | 24 ft | 12 kts | 177° |
| 2026-05-04 07:34 | 26.19750 | 127.64787 | 23 ft | 12 kts | 178° |
| 2026-05-04 07:35 | 26.19667 | 127.64791 | 22 ft | 12 kts | 177° |
| 2026-05-04 07:35 | 26.19585 | 127.64795 | 22 ft | 12 kts | 177° |
| 2026-05-04 07:35 | 26.19503 | 127.64800 | 23 ft | 12 kts | 178° |
| 2026-05-04 07:35 | 26.19420 | 127.64802 | 23 ft | 12 kts | 179° |
| 2026-05-04 07:36 | 26.19336 | 127.64804 | 23 ft | 12 kts | 177° |
| 2026-05-04 07:36 | 26.19252 | 127.64809 | 22 ft | 12 kts | 178° |
| 2026-05-04 07:38 | 26.18667 | 127.64839 | 24 ft | 12 kts | 177° |
| 2026-05-04 07:38 | 26.18584 | 127.64844 | 24 ft | 12 kts | 177° |
| 2026-05-04 07:38 | 26.18497 | 127.64846 | 23 ft | 12 kts | 179° |
| 2026-05-04 07:38 | 26.18410 | 127.64848 | 23 ft | 12 kts | 178° |
| 2026-05-04 07:39 | 26.18324 | 127.64852 | 23 ft | 12 kts | 178° |
| 2026-05-04 07:39 | 26.18249 | 127.64816 | 22 ft | 12 kts | 244° |
| 2026-05-04 07:39 | 26.18243 | 127.64759 | 21 ft | 0 kts | 266° |
| 2026-05-04 07:40 | 26.18243 | 127.64757 | 21 ft | 3 kts | 266° |
| 2026-05-04 07:40 | 26.18241 | 127.64694 | 20 ft | 9 kts | 271° |
| 2026-05-04 07:40 | 26.18283 | 127.64651 | 20 ft | 9 kts | 354° |
| 2026-05-04 07:40 | 26.18401 | 127.64645 | 23 ft | 38 kts | 357° |
| 2026-05-04 07:41 | 26.18933 | 127.64622 | 24 ft | 116 kts | 358° |
| 2026-05-04 07:41 | 26.19936 | 127.64553 | 304 ft | 157 kts | 359° |
| 2026-05-04 07:41 | 26.21011 | 127.64474 | 1343 ft | 151 kts | 1° |
| 2026-05-04 07:41 | 26.22000 | 127.64415 | 2386 ft | 145 kts | 2° |
| 2026-05-04 07:42 | 26.23109 | 127.64374 | 2572 ft | 172 kts | 2° |
| 2026-05-04 07:42 | 26.24402 | 127.64343 | 2774 ft | 201 kts | 2° |
| 2026-05-04 07:42 | 26.25869 | 127.64134 | 2956 ft | 228 kts | 343° |
| 2026-05-04 07:42 | 26.27349 | 127.63317 | 3522 ft | 244 kts | 334° |
| 2026-05-04 07:43 | 26.28844 | 127.62345 | 4149 ft | 254 kts | 332° |
| 2026-05-04 07:43 | 26.30368 | 127.61339 | 4930 ft | 257 kts | 330° |
| 2026-05-04 07:43 | 26.31936 | 127.60314 | 5479 ft | 268 kts | 328° |
| 2026-05-04 07:43 | 26.33581 | 127.59252 | 6055 ft | 277 kts | 327° |
| 2026-05-04 07:44 | 26.35272 | 127.58170 | 6694 ft | 284 kts | 326° |
| 2026-05-04 07:44 | 26.36997 | 127.57073 | 7455 ft | 286 kts | 326° |
| 2026-05-04 07:44 | 26.38730 | 127.55974 | 8201 ft | 289 kts | 325° |
| 2026-05-04 07:44 | 26.40307 | 127.54648 | 8721 ft | 283 kts | 303° |
| 2026-05-04 07:45 | 26.41136 | 127.52730 | 9504 ft | 271 kts | 276° |
| 2026-05-04 07:45 | 26.41133 | 127.50684 | 10334 ft | 263 kts | 256° |
| 2026-05-04 07:45 | 26.40503 | 127.48714 | 10583 ft | 282 kts | 237° |
| 2026-05-04 07:45 | 26.39217 | 127.46962 | 10825 ft | 302 kts | 229° |
| 2026-05-04 07:46 | 26.38257 | 127.45768 | 11265 ft | 309 kts | 229° |